createdAt,value
2018-06-09T00:02:22.530Z,10.50
2018-06-09T00:04:51.397Z,12.70
2018-06-09T00:07:20.313Z,77.62
2018-06-09T00:09:49.208Z,55.03
2018-06-09T00:12:18.342Z,26.15
2018-06-09T00:14:47.438Z,25.60
2018-06-09T00:17:16.661Z,16.65
2018-06-09T00:19:45.874Z,15.25
2018-06-09T00:22:14.980Z,13.80
2018-06-09T00:24:44.090Z,12.85
2018-06-09T00:27:13.211Z,16.30
2018-06-09T00:29:42.512Z,15.00
2018-06-09T00:32:11.670Z,15.25
2018-06-09T00:34:40.791Z,12.45
2018-06-09T00:37:09.888Z,12.05
2018-06-09T00:39:39.013Z,11.48
2018-06-09T00:42:08.131Z,13.08
2018-06-09T00:44:37.266Z,13.18
2018-06-09T00:47:06.446Z,12.65
2018-06-09T00:49:35.562Z,12.15
2018-06-09T00:52:04.714Z,10.68
2018-06-09T00:54:34.007Z,10.63
2018-06-09T00:57:03.242Z,10.80
2018-06-09T00:59:32.474Z,11.73
2018-06-09T01:02:02.018Z,10.98
2018-06-09T01:04:31.168Z,10.90
2018-06-09T01:07:00.438Z,12.58
2018-06-09T01:09:29.547Z,11.65
2018-06-09T01:11:58.679Z,11.25
2018-06-09T01:14:27.774Z,10.58
2018-06-09T01:16:56.878Z,12.05
2018-06-09T01:19:26.066Z,11.30
2018-06-09T01:21:55.174Z,10.90
2018-06-09T01:24:24.292Z,11.70
2018-06-09T01:26:53.408Z,11.03
2018-06-09T01:29:22.178Z,11.68
2018-06-09T01:31:51.192Z,13.68
2018-06-09T01:34:20.390Z,12.20
2018-06-09T01:36:49.486Z,13.68
2018-06-09T01:39:18.595Z,12.13
2018-06-09T01:41:47.706Z,13.55
2018-06-09T01:44:16.847Z,12.78
2018-06-09T01:46:45.967Z,11.30
2018-06-09T01:49:15.155Z,11.80
2018-06-09T01:51:44.252Z,15.48
2018-06-09T01:54:13.363Z,11.90
2018-06-09T01:56:42.506Z,11.78
2018-06-09T01:59:11.599Z,11.08
2018-06-09T02:01:40.758Z,11.83
2018-06-09T02:04:09.867Z,12.93
2018-06-09T02:06:39.031Z,11.73
2018-06-09T02:09:09.534Z,13.43
2018-06-09T02:11:38.654Z,12.30
2018-06-09T02:14:07.799Z,11.20
2018-06-09T02:16:36.895Z,12.30
2018-06-09T02:19:06.019Z,11.83
2018-06-09T02:21:35.143Z,12.00
2018-06-09T02:24:04.271Z,10.88
2018-06-09T02:26:33.398Z,12.20
2018-06-09T02:29:02.801Z,12.88
2018-06-09T02:31:31.968Z,11.65
2018-06-09T02:34:01.202Z,12.15
2018-06-09T02:36:30.410Z,11.90
2018-06-09T02:38:59.532Z,11.28
2018-06-09T02:41:28.675Z,13.30
2018-06-09T02:43:57.799Z,15.85
2018-06-09T02:46:26.935Z,11.60
2018-06-09T02:48:56.023Z,12.50
2018-06-09T02:51:25.138Z,11.97
2018-06-09T02:53:54.019Z,10.75
2018-06-09T02:56:23.111Z,12.07
2018-06-09T02:58:52.238Z,12.10
2018-06-09T03:01:21.343Z,11.63
2018-06-09T03:03:50.455Z,13.20
2018-06-09T03:06:19.551Z,11.80
2018-06-09T03:08:48.674Z,13.70
2018-06-09T03:11:17.787Z,11.60
2018-06-09T03:13:47.023Z,12.98
2018-06-09T03:16:16.154Z,12.75
2018-06-09T03:18:45.279Z,13.00
2018-06-09T03:21:14.402Z,14.00
2018-06-09T03:23:43.507Z,12.58
2018-06-09T03:26:12.619Z,12.58
2018-06-09T03:28:41.760Z,14.40
2018-06-09T03:31:10.975Z,11.55
2018-06-09T03:33:40.059Z,14.28
2018-06-09T03:36:09.163Z,14.00
2018-06-09T03:38:38.266Z,13.40
2018-06-09T03:41:07.380Z,13.68
2018-06-09T03:43:36.471Z,13.30
2018-06-09T03:46:05.615Z,13.58
2018-06-09T03:48:34.803Z,13.65
2018-06-09T03:51:03.954Z,13.93
2018-06-09T03:53:33.188Z,13.55
2018-06-09T03:56:02.286Z,13.68
2018-06-09T03:58:31.443Z,13.65
2018-06-09T04:01:00.543Z,13.18
2018-06-09T04:03:29.763Z,13.22
2018-06-09T04:05:58.865Z,13.38
2018-06-09T04:08:28.001Z,12.28
2018-06-09T04:10:57.116Z,13.70
2018-06-09T04:13:26.211Z,14.50
2018-06-09T04:15:55.311Z,15.08
2018-06-09T04:18:24.395Z,13.70
2018-06-09T04:20:53.503Z,15.28
2018-06-09T04:23:22.617Z,13.03
2018-06-09T04:25:51.731Z,12.40
2018-06-09T04:28:21.006Z,14.05
2018-06-09T04:30:50.105Z,17.07
2018-06-09T04:33:19.216Z,14.30
2018-06-09T04:35:48.330Z,13.22
2018-06-09T04:38:17.430Z,13.32
2018-06-09T04:40:46.609Z,14.38
2018-06-09T04:43:15.827Z,13.18
2018-06-09T04:45:45.025Z,15.63
2018-06-09T04:48:14.143Z,13.35
2018-06-09T04:50:43.256Z,13.55
2018-06-09T04:53:12.367Z,15.18
2018-06-09T04:55:41.467Z,14.75
2018-06-09T04:58:10.579Z,13.78
2018-06-09T05:00:39.694Z,14.43
2018-06-09T05:03:08.895Z,12.85
2018-06-09T05:05:38.024Z,13.25
2018-06-09T05:08:07.123Z,14.90
2018-06-09T05:10:36.363Z,13.13
2018-06-09T05:13:05.520Z,15.15
2018-06-09T05:15:34.707Z,13.48
2018-06-09T05:18:03.870Z,14.03
2018-06-09T05:20:33.035Z,15.68
2018-06-09T05:23:02.234Z,15.20
2018-06-09T05:25:31.343Z,15.23
2018-06-09T05:28:00.521Z,15.43
2018-06-09T05:30:29.734Z,15.50
2018-06-09T05:32:58.921Z,14.95
2018-06-09T05:35:28.040Z,15.13
2018-06-09T05:37:57.152Z,14.45
2018-06-09T05:40:26.351Z,12.90
2018-06-09T05:42:55.466Z,14.20
2018-06-09T05:45:24.590Z,16.75
2018-06-09T05:47:53.694Z,13.28
2018-06-09T05:50:22.815Z,14.28
2018-06-09T05:52:51.911Z,14.20
2018-06-09T05:55:21.043Z,13.93
2018-06-09T05:57:50.138Z,14.00
2018-06-09T06:00:19.251Z,14.87
2018-06-09T06:02:48.355Z,14.83
2018-06-09T06:05:17.548Z,14.28
2018-06-09T06:07:46.635Z,14.60
2018-06-09T06:10:15.758Z,13.70
2018-06-09T06:12:44.875Z,14.05
2018-06-09T06:15:20.310Z,13.97
2018-06-09T06:17:55.638Z,14.07
2018-06-09T06:20:31.055Z,17.55
2018-06-09T06:23:06.366Z,12.53
2018-06-09T06:25:41.723Z,13.43
2018-06-09T06:28:10.998Z,13.57
2018-06-09T06:30:40.102Z,12.33
2018-06-09T06:33:09.209Z,12.70
2018-06-09T06:35:38.331Z,12.03
2018-06-09T06:38:07.471Z,11.25
2018-06-09T06:40:36.577Z,12.43
2018-06-09T06:43:05.698Z,12.43
2018-06-09T06:45:34.947Z,11.57
2018-06-09T06:48:04.135Z,12.30
2018-06-09T06:50:33.544Z,12.50
2018-06-09T06:53:02.876Z,12.93
2018-06-09T06:55:32.155Z,12.20
2018-06-09T06:58:01.409Z,11.20
2018-06-09T07:00:30.599Z,11.80
2018-06-09T07:02:59.776Z,12.93
2018-06-09T07:05:28.930Z,10.50
2018-06-09T07:07:58.104Z,10.70
2018-06-09T07:10:27.273Z,9.20
2018-06-09T07:12:56.528Z,8.97
2018-06-09T07:15:25.637Z,7.87
2018-06-09T07:17:54.733Z,12.70
2018-06-09T07:20:23.850Z,8.27
2018-06-09T07:22:52.955Z,8.60
2018-06-09T07:25:22.046Z,9.50
2018-06-09T07:27:51.158Z,8.60
2018-06-09T07:30:19.891Z,9.73
2018-06-09T07:32:48.987Z,8.57
2018-06-09T07:35:18.091Z,9.60
2018-06-09T07:37:47.281Z,8.80
2018-06-09T07:40:16.386Z,9.17
2018-06-09T07:42:45.516Z,10.67
2018-06-09T07:45:14.624Z,8.80
2018-06-09T07:47:43.747Z,9.43
2018-06-09T07:50:13.934Z,10.13
2018-06-09T07:52:43.052Z,9.07
2018-06-09T07:55:12.207Z,9.30
2018-06-09T07:57:41.719Z,8.80
2018-06-09T08:00:10.850Z,9.57
2018-06-09T08:02:40.002Z,11.10
2018-06-09T08:05:09.187Z,11.03
2018-06-09T08:07:38.338Z,9.40
2018-06-09T08:10:07.556Z,8.50
2018-06-09T08:12:36.778Z,10.50
2018-06-09T08:15:05.910Z,11.90
2018-06-09T08:17:35.160Z,9.10
2018-06-09T08:20:04.399Z,10.97
2018-06-09T08:22:33.752Z,9.37
2018-06-09T08:25:02.968Z,9.20
2018-06-09T08:27:32.171Z,8.50
2018-06-09T08:30:01.345Z,8.07
2018-06-09T08:32:30.494Z,8.20
2018-06-09T08:34:59.715Z,10.40
2018-06-09T08:37:28.926Z,9.83
2018-06-09T08:39:58.048Z,8.67
2018-06-09T08:42:27.164Z,9.10
2018-06-09T08:44:56.272Z,10.53
2018-06-09T08:47:25.372Z,9.77
2018-06-09T08:49:54.837Z,9.77
2018-06-09T08:52:23.907Z,9.90
2018-06-09T08:54:53.358Z,8.97
2018-06-09T08:57:22.436Z,7.60
2018-06-09T08:59:51.267Z,8.30
2018-06-09T09:02:20.293Z,9.07
2018-06-09T09:04:49.368Z,8.23
2018-06-09T09:07:18.900Z,10.83
2018-06-09T09:09:48.015Z,7.90
2018-06-09T09:12:17.127Z,8.07
2018-06-09T09:14:46.252Z,9.03
2018-06-09T09:17:15.371Z,7.47
2018-06-09T09:19:44.451Z,8.13
2018-06-09T09:22:13.655Z,8.17
2018-06-09T09:24:42.774Z,8.67
2018-06-09T09:27:11.848Z,7.63
2018-06-09T09:29:41.013Z,8.97
2018-06-09T09:32:10.178Z,8.00
2018-06-09T09:34:39.300Z,7.63
2018-06-09T09:37:08.454Z,7.63
2018-06-09T09:39:37.559Z,10.07
2018-06-09T09:42:06.667Z,7.30
2018-06-09T09:44:35.786Z,8.07
2018-06-09T09:47:05.102Z,7.60
2018-06-09T09:49:33.866Z,7.93
2018-06-09T09:52:02.956Z,8.70
2018-06-09T09:54:32.179Z,8.20
2018-06-09T09:57:01.401Z,7.90
2018-06-09T09:59:31.723Z,9.40
2018-06-09T10:02:00.921Z,8.33
2018-06-09T10:04:30.062Z,8.17
2018-06-09T10:06:59.222Z,9.07
2018-06-09T10:09:28.307Z,9.57
2018-06-09T10:11:57.443Z,8.77
2018-06-09T10:14:26.596Z,8.10
2018-06-09T10:16:55.694Z,7.93
2018-06-09T10:19:24.787Z,7.37
2018-06-09T10:21:53.891Z,7.50
2018-06-09T10:24:23.014Z,7.87
2018-06-09T10:26:52.151Z,7.80
2018-06-09T10:29:21.250Z,7.63
2018-06-09T10:31:50.322Z,7.53
2018-06-09T10:34:19.444Z,7.77
2018-06-09T10:36:48.532Z,8.03
2018-06-09T10:39:17.652Z,7.57
2018-06-09T10:41:46.806Z,7.17
2018-06-09T10:44:15.901Z,8.23
2018-06-09T10:46:44.984Z,8.37
2018-06-09T10:49:14.066Z,9.07
2018-06-09T10:51:43.159Z,8.77
2018-06-09T10:54:11.942Z,7.90
2018-06-09T10:56:40.971Z,8.30
2018-06-09T10:59:09.723Z,8.33
2018-06-09T11:01:38.731Z,7.33
2018-06-09T11:04:08.334Z,7.73
2018-06-09T11:06:38.799Z,6.63
2018-06-09T11:09:07.914Z,6.90
2018-06-09T11:11:37.014Z,7.10
2018-06-09T11:14:06.129Z,7.30
2018-06-09T11:16:35.283Z,6.63
2018-06-09T11:19:04.410Z,6.30
2018-06-09T11:21:33.711Z,5.97
2018-06-09T11:24:03.000Z,5.23
2018-06-09T11:26:32.500Z,5.80
2018-06-09T11:29:01.816Z,5.20
2018-06-09T11:31:30.738Z,5.33
2018-06-09T11:33:59.760Z,6.00
2018-06-09T11:36:29.227Z,5.70
2018-06-09T11:38:58.368Z,6.17
2018-06-09T11:41:27.431Z,6.47
2018-06-09T11:43:56.748Z,7.47
2018-06-09T11:46:25.896Z,4.93
2018-06-09T11:48:55.092Z,5.57
2018-06-09T11:51:24.175Z,5.63
2018-06-09T11:53:53.274Z,5.70
2018-06-09T11:56:22.395Z,7.00
2018-06-09T11:58:51.475Z,6.40
2018-06-09T12:01:20.575Z,5.47
2018-06-09T12:03:49.691Z,7.33
2018-06-09T12:06:18.798Z,4.90
2018-06-09T12:08:47.879Z,4.20
2018-06-09T12:11:16.987Z,8.53
2018-06-09T12:13:46.059Z,5.30
2018-06-09T12:16:15.218Z,4.47
2018-06-09T12:18:44.522Z,6.00
2018-06-09T12:21:13.615Z,4.80
2018-06-09T12:23:42.739Z,6.80
2018-06-09T12:26:11.814Z,5.37
2018-06-09T12:28:40.956Z,4.90
2018-06-09T12:31:10.020Z,4.73
2018-06-09T12:33:39.115Z,6.07
2018-06-09T12:36:08.203Z,5.30
2018-06-09T12:38:37.372Z,6.47
2018-06-09T12:41:06.511Z,4.37
2018-06-09T12:43:36.458Z,5.23
2018-06-09T12:46:05.751Z,2.60
2018-06-09T12:48:35.054Z,4.63
2018-06-09T12:51:04.300Z,5.10
2018-06-09T12:53:33.529Z,6.23
2018-06-09T12:56:02.764Z,6.30
2018-06-09T12:58:31.951Z,6.53
2018-06-09T13:01:01.161Z,3.60
2018-06-09T13:03:30.286Z,4.30
2018-06-09T13:05:59.389Z,3.37
2018-06-09T13:08:28.537Z,4.80
2018-06-09T13:10:57.607Z,4.27
2018-06-09T13:13:26.702Z,4.60
2018-06-09T13:15:55.832Z,8.10
2018-06-09T13:18:24.968Z,5.23
2018-06-09T13:20:54.054Z,5.10
2018-06-09T13:23:23.131Z,3.77
2018-06-09T13:25:52.293Z,3.27
2018-06-09T13:28:21.383Z,5.03
2018-06-09T13:30:50.134Z,6.90
2018-06-09T13:33:19.114Z,4.13
2018-06-09T13:35:48.220Z,4.43
2018-06-09T13:38:17.294Z,3.30
2018-06-09T13:40:46.626Z,4.97
2018-06-09T13:43:15.703Z,4.97
2018-06-09T13:45:44.811Z,4.67
2018-06-09T13:48:13.879Z,3.40
2018-06-09T13:50:42.980Z,5.43
2018-06-09T13:53:12.167Z,3.47
2018-06-09T13:55:41.300Z,3.90
2018-06-09T13:58:10.392Z,4.23
2018-06-09T14:00:39.574Z,3.33
2018-06-09T14:03:08.893Z,3.37
2018-06-09T14:05:38.004Z,3.40
2018-06-09T14:08:07.095Z,4.70
2018-06-09T14:10:36.224Z,6.13
2018-06-09T14:13:05.367Z,6.37
2018-06-09T14:15:34.549Z,9.30
2018-06-09T14:18:03.764Z,4.20
2018-06-09T14:20:32.958Z,5.20
2018-06-09T14:23:02.152Z,8.90
2018-06-09T14:25:31.339Z,4.27
2018-06-09T14:28:00.495Z,5.27
2018-06-09T14:30:29.591Z,5.63
2018-06-09T14:32:58.747Z,6.67
2018-06-09T14:35:27.891Z,6.60
2018-06-09T14:37:57.004Z,7.50
2018-06-09T14:40:26.116Z,5.07
2018-06-09T14:42:55.191Z,5.93
2018-06-09T14:45:24.507Z,6.20
2018-06-09T14:47:53.599Z,7.67
2018-06-09T14:50:22.704Z,6.67
2018-06-09T14:52:51.919Z,6.20
2018-06-09T14:55:21.042Z,7.00
2018-06-09T14:57:50.135Z,12.10
2018-06-09T15:00:19.307Z,8.23
2018-06-09T15:02:48.419Z,6.00
2018-06-09T15:05:17.513Z,9.13
2018-06-09T15:07:46.608Z,5.23
2018-06-09T15:10:15.682Z,5.63
2018-06-09T15:12:44.791Z,7.43
2018-06-09T15:15:14.059Z,9.90
2018-06-09T15:17:43.314Z,7.07
2018-06-09T15:20:12.402Z,7.67
2018-06-09T15:22:41.585Z,5.87
2018-06-09T15:25:10.646Z,5.27
2018-06-09T15:27:40.012Z,8.07
2018-06-09T15:30:09.215Z,6.63
2018-06-09T15:32:38.307Z,6.50
2018-06-09T15:35:07.603Z,6.67
2018-06-09T15:37:36.683Z,5.70
2018-06-09T15:40:05.854Z,6.00
2018-06-09T15:42:35.031Z,8.20
2018-06-09T15:45:04.191Z,6.15
2018-06-09T15:47:33.014Z,6.47
2018-06-09T15:50:02.051Z,5.67
2018-06-09T15:52:31.266Z,6.15
2018-06-09T15:55:00.370Z,6.30
2018-06-09T15:57:29.867Z,8.13
2018-06-09T15:59:59.323Z,5.33
2018-06-09T16:02:28.499Z,6.78
2018-06-09T16:04:57.575Z,5.47
2018-06-09T16:07:26.707Z,7.90
2018-06-09T16:09:55.803Z,6.13
2018-06-09T16:12:24.919Z,6.70
2018-06-09T16:14:54.056Z,4.70
2018-06-09T16:17:23.154Z,8.80
2018-06-09T16:19:52.342Z,7.00
2018-06-09T16:22:21.418Z,7.10
2018-06-09T16:24:50.579Z,5.93
2018-06-09T16:27:19.670Z,5.47
2018-06-09T16:29:48.766Z,6.07
2018-06-09T16:32:17.867Z,4.10
2018-06-09T16:34:46.737Z,3.63
2018-06-09T16:37:15.724Z,4.37
2018-06-09T16:39:44.830Z,8.37
2018-06-09T16:42:13.922Z,6.30
2018-06-09T16:44:43.035Z,5.90
2018-06-09T16:47:12.143Z,6.53
2018-06-09T16:49:41.254Z,3.35
2018-06-09T16:52:10.356Z,3.50
2018-06-09T16:54:39.459Z,6.80
2018-06-09T16:57:08.590Z,4.70
2018-06-09T16:59:37.725Z,4.20
2018-06-09T17:02:06.896Z,11.20
2018-06-09T17:04:36.025Z,7.43
2018-06-09T17:07:05.346Z,4.97
2018-06-09T17:09:34.431Z,3.83
2018-06-09T17:12:03.573Z,5.80
2018-06-09T17:14:32.823Z,6.03
2018-06-09T17:17:02.091Z,5.40
2018-06-09T17:19:31.290Z,5.60
2018-06-09T17:22:00.386Z,4.50
2018-06-09T17:24:29.515Z,6.30
2018-06-09T17:26:58.711Z,6.72
2018-06-09T17:29:27.851Z,6.67
2018-06-09T17:31:56.931Z,6.65
2018-06-09T17:34:26.047Z,5.60
2018-06-09T17:36:55.190Z,6.33
2018-06-09T17:39:24.275Z,5.93
2018-06-09T17:41:53.382Z,7.90
2018-06-09T17:44:22.469Z,6.22
2018-06-09T17:46:51.576Z,6.75
2018-06-09T17:49:20.667Z,4.37
2018-06-09T17:51:49.787Z,6.80
2018-06-09T17:54:19.164Z,13.62
2018-06-09T17:56:48.266Z,8.03
2018-06-09T17:59:17.386Z,5.55
2018-06-09T18:01:46.487Z,5.60
2018-06-09T18:04:15.599Z,7.77
2018-06-09T18:06:44.695Z,6.62
2018-06-09T18:09:13.811Z,8.50
2018-06-09T18:11:42.919Z,5.50
2018-06-09T18:14:12.035Z,6.25
2018-06-09T18:16:41.149Z,6.60
2018-06-09T18:19:10.250Z,5.53
2018-06-09T18:21:39.354Z,8.47
2018-06-09T18:24:08.566Z,6.90
2018-06-09T18:26:37.647Z,6.20
2018-06-09T18:29:06.766Z,6.65
2018-06-09T18:31:35.870Z,6.30
2018-06-09T18:34:05.175Z,7.87
2018-06-09T18:36:34.465Z,7.58
2018-06-09T18:39:04.750Z,5.45
2018-06-09T18:41:33.951Z,5.20
2018-06-09T18:44:03.147Z,7.47
2018-06-09T18:46:32.327Z,5.97
2018-06-09T18:49:01.411Z,6.90
2018-06-09T18:51:30.541Z,5.37
2018-06-09T18:53:59.309Z,9.77
2018-06-09T18:56:28.336Z,6.17
2018-06-09T18:58:57.476Z,6.92
2018-06-09T19:01:26.660Z,7.10
2018-06-09T19:03:55.811Z,5.53
2018-06-09T19:06:24.879Z,6.50
2018-06-09T19:08:53.631Z,7.58
2018-06-09T19:11:22.651Z,8.10
2018-06-09T19:13:51.753Z,6.72
2018-06-09T19:16:20.873Z,5.50
2018-06-09T19:18:50.032Z,5.90
2018-06-09T19:21:19.188Z,5.65
2018-06-09T19:23:48.650Z,6.90
2018-06-09T19:26:17.786Z,5.40
2018-06-09T19:28:47.003Z,5.57
2018-06-09T19:31:16.101Z,6.00
2018-06-09T19:33:45.222Z,6.77
2018-06-09T19:36:14.310Z,6.20
2018-06-09T19:38:43.450Z,6.45
2018-06-09T19:41:12.585Z,8.35
2018-06-09T19:43:41.671Z,6.05
2018-06-09T19:46:10.846Z,6.20
2018-06-09T19:48:39.579Z,6.07
2018-06-09T19:51:08.606Z,8.03
2018-06-09T19:53:37.711Z,6.97
2018-06-09T19:56:06.995Z,7.60
2018-06-09T19:58:36.130Z,7.10
2018-06-09T20:01:05.262Z,7.95
2018-06-09T20:03:34.499Z,6.90
2018-06-09T20:06:03.768Z,7.10
2018-06-09T20:08:32.906Z,8.10
2018-06-09T20:11:02.019Z,6.20
2018-06-09T20:13:30.825Z,8.58
2018-06-09T20:15:59.866Z,7.95
2018-06-09T20:18:28.951Z,7.17
2018-06-09T20:20:58.091Z,6.63
2018-06-09T20:23:27.195Z,7.03
2018-06-09T20:25:56.302Z,7.60
2018-06-09T20:28:25.576Z,7.00
2018-06-09T20:30:54.696Z,6.67
2018-06-09T20:33:23.871Z,8.23
2018-06-09T20:35:53.007Z,10.03
2018-06-09T20:38:22.245Z,9.25
2018-06-09T20:40:51.428Z,7.67
2018-06-09T20:43:20.591Z,11.20
2018-06-09T20:45:49.724Z,10.55
2018-06-09T20:48:18.891Z,8.03
2018-06-09T20:50:48.039Z,8.58
2018-06-09T20:53:17.158Z,8.00
2018-06-09T20:55:46.261Z,8.93
2018-06-09T20:58:15.376Z,8.00
2018-06-09T21:00:44.512Z,8.78
2018-06-09T21:03:13.619Z,8.45
2018-06-09T21:05:42.787Z,11.08
2018-06-09T21:08:11.840Z,12.78
2018-06-09T21:10:40.963Z,9.30
2018-06-09T21:13:10.120Z,8.25
2018-06-09T21:15:39.227Z,8.15
2018-06-09T21:18:08.360Z,12.07
2018-06-09T21:20:37.497Z,8.40
2018-06-09T21:23:06.623Z,8.70
2018-06-09T21:25:35.974Z,9.58
2018-06-09T21:28:10.632Z,8.18
2018-06-09T21:30:41.779Z,8.80
2018-06-09T21:33:24.997Z,7.45
2018-06-09T21:36:01.919Z,8.73
2018-06-09T21:38:38.610Z,7.90
2018-06-09T21:41:13.015Z,11.10
2018-06-09T21:43:47.281Z,7.85
2018-06-09T21:46:21.621Z,13.08
2018-06-09T21:48:50.786Z,9.30
2018-06-09T21:51:19.867Z,9.28
2018-06-09T21:53:49.071Z,9.73
2018-06-09T21:56:18.206Z,10.60
2018-06-09T21:58:47.322Z,9.53
2018-06-09T22:01:16.443Z,12.90
2018-06-09T22:03:45.686Z,8.18
2018-06-09T22:06:14.915Z,8.68
2018-06-09T22:08:44.019Z,8.65
2018-06-09T22:11:13.179Z,9.63
2018-06-09T22:13:42.344Z,8.55
2018-06-09T22:16:11.464Z,14.23
2018-06-09T22:18:40.579Z,7.78
2018-06-09T22:21:09.691Z,8.85
2018-06-09T22:23:38.823Z,8.13
2018-06-09T22:26:14.919Z,9.20
2018-06-09T22:28:44.377Z,8.78
2018-06-09T22:31:13.483Z,9.10
2018-06-09T22:33:42.691Z,10.63
2018-06-09T22:36:11.812Z,11.35
2018-06-09T22:38:40.912Z,8.23
2018-06-09T22:41:10.041Z,9.40
2018-06-09T22:43:39.138Z,8.65
2018-06-09T22:46:08.264Z,9.25
2018-06-09T22:48:37.549Z,9.75
2018-06-09T22:51:06.650Z,9.48
2018-06-09T22:53:35.851Z,9.23
2018-06-09T22:56:05.040Z,8.68
2018-06-09T22:58:34.182Z,9.98
2018-06-09T23:01:03.351Z,9.55
2018-06-09T23:03:32.773Z,10.65
2018-06-09T23:06:01.591Z,9.68
2018-06-09T23:08:30.627Z,10.85
2018-06-09T23:10:59.831Z,10.68
2018-06-09T23:13:28.971Z,7.75
2018-06-09T23:15:58.064Z,8.88
2018-06-09T23:18:27.204Z,8.48
2018-06-09T23:20:56.347Z,11.95
2018-06-09T23:23:25.480Z,10.08
2018-06-09T23:25:54.587Z,8.80
2018-06-09T23:28:23.674Z,9.95
2018-06-09T23:30:52.887Z,8.63
2018-06-09T23:33:21.954Z,8.30
2018-06-09T23:35:51.075Z,8.10
2018-06-09T23:38:20.197Z,9.35
2018-06-09T23:40:48.957Z,10.10
2018-06-09T23:43:18.096Z,8.35
2018-06-09T23:45:47.201Z,10.30
2018-06-09T23:48:16.448Z,7.83
2018-06-09T23:50:45.555Z,9.95
2018-06-09T23:53:14.659Z,14.68
2018-06-09T23:55:43.811Z,8.65
2018-06-09T23:58:12.969Z,11.88
